sensor_id;sensor_type;location;lat;lon;timestamp;P1;durP1;ratioP1;P2;durP2;ratioP2
18286;SDS011;9269;50.838;12.094;2022-09-17T00:00:37;3.03;;;1.60;;
18286;SDS011;9269;50.838;12.094;2022-09-17T00:03:15;4.63;;;1.47;;
18286;SDS011;9269;50.838;12.094;2022-09-17T00:06:04;2.13;;;1.10;;
18286;SDS011;9269;50.838;12.094;2022-09-17T00:08:55;2.40;;;1.40;;
18286;SDS011;9269;50.838;12.094;2022-09-17T00:11:43;1.33;;;1.23;;
18286;SDS011;9269;50.838;12.094;2022-09-17T00:14:27;3.80;;;1.20;;
18286;SDS011;9269;50.838;12.094;2022-09-17T00:16:58;2.57;;;1.00;;
18286;SDS011;9269;50.838;12.094;2022-09-17T00:19:36;1.40;;;1.10;;
18286;SDS011;9269;50.838;12.094;2022-09-17T00:22:25;3.57;;;1.10;;
18286;SDS011;9269;50.838;12.094;2022-09-17T00:25:04;1.53;;;1.07;;
18286;SDS011;9269;50.838;12.094;2022-09-17T00:27:34;1.90;;;1.30;;
18286;SDS011;9269;50.838;12.094;2022-09-17T00:30:03;2.03;;;1.30;;
18286;SDS011;9269;50.838;12.094;2022-09-17T00:32:32;2.27;;;1.10;;
18286;SDS011;9269;50.838;12.094;2022-09-17T00:35:20;4.67;;;1.27;;
18286;SDS011;9269;50.838;12.094;2022-09-17T00:38:07;3.13;;;1.10;;
18286;SDS011;9269;50.838;12.094;2022-09-17T00:40:40;5.47;;;1.70;;
18286;SDS011;9269;50.838;12.094;2022-09-17T00:43:31;1.83;;;1.10;;
18286;SDS011;9269;50.838;12.094;2022-09-17T00:46:03;1.37;;;1.00;;
18286;SDS011;9269;50.838;12.094;2022-09-17T00:48:58;3.00;;;1.17;;
18286;SDS011;9269;50.838;12.094;2022-09-17T00:51:43;3.73;;;1.40;;
18286;SDS011;9269;50.838;12.094;2022-09-17T00:54:48;2.93;;;1.27;;
18286;SDS011;9269;50.838;12.094;2022-09-17T00:57:22;4.33;;;1.47;;
18286;SDS011;9269;50.838;12.094;2022-09-17T00:59:52;2.77;;;1.57;;
18286;SDS011;9269;50.838;12.094;2022-09-17T01:02:40;3.20;;;1.47;;
18286;SDS011;9269;50.838;12.094;2022-09-17T01:05:30;3.80;;;1.30;;
18286;SDS011;9269;50.838;12.094;2022-09-17T01:08:12;3.83;;;1.30;;
18286;SDS011;9269;50.838;12.094;2022-09-17T01:11:18;2.97;;;1.57;;
18286;SDS011;9269;50.838;12.094;2022-09-17T01:13:59;3.27;;;1.40;;
18286;SDS011;9269;50.838;12.094;2022-09-17T01:16:42;2.10;;;1.40;;
18286;SDS011;9269;50.838;12.094;2022-09-17T01:19:41;3.37;;;1.50;;
18286;SDS011;9269;50.838;12.094;2022-09-17T01:22:36;2.57;;;1.40;;
18286;SDS011;9269;50.838;12.094;2022-09-17T01:25:21;3.03;;;1.47;;
18286;SDS011;9269;50.838;12.094;2022-09-17T01:28:15;2.60;;;1.50;;
18286;SDS011;9269;50.838;12.094;2022-09-17T01:31:11;3.43;;;1.80;;
18286;SDS011;9269;50.838;12.094;2022-09-17T01:34:04;2.50;;;1.60;;
18286;SDS011;9269;50.838;12.094;2022-09-17T01:36:44;3.93;;;1.50;;
18286;SDS011;9269;50.838;12.094;2022-09-17T01:39:39;3.87;;;1.67;;
18286;SDS011;9269;50.838;12.094;2022-09-17T01:42:32;4.53;;;1.87;;
18286;SDS011;9269;50.838;12.094;2022-09-17T01:45:11;3.97;;;1.83;;
18286;SDS011;9269;50.838;12.094;2022-09-17T01:47:45;2.00;;;1.60;;
18286;SDS011;9269;50.838;12.094;2022-09-17T01:50:17;4.97;;;1.77;;
18286;SDS011;9269;50.838;12.094;2022-09-17T01:52:53;2.53;;;1.70;;
18286;SDS011;9269;50.838;12.094;2022-09-17T01:55:31;3.47;;;1.50;;
18286;SDS011;9269;50.838;12.094;2022-09-17T01:58:03;1.97;;;1.60;;
18286;SDS011;9269;50.838;12.094;2022-09-17T02:00:35;3.90;;;1.80;;
18286;SDS011;9269;50.838;12.094;2022-09-17T02:03:16;5.43;;;1.83;;
18286;SDS011;9269;50.838;12.094;2022-09-17T02:05:48;3.53;;;1.63;;
18286;SDS011;9269;50.838;12.094;2022-09-17T02:08:23;3.57;;;1.80;;
18286;SDS011;9269;50.838;12.094;2022-09-17T02:10:56;3.70;;;1.80;;
18286;SDS011;9269;50.838;12.094;2022-09-17T02:13:30;3.03;;;1.80;;
18286;SDS011;9269;50.838;12.094;2022-09-17T02:16:05;3.03;;;2.10;;
18286;SDS011;9269;50.838;12.094;2022-09-17T02:18:41;2.23;;;2.00;;
18286;SDS011;9269;50.838;12.094;2022-09-17T02:21:15;4.77;;;1.90;;
18286;SDS011;9269;50.838;12.094;2022-09-17T02:23:51;3.67;;;2.00;;
18286;SDS011;9269;50.838;12.094;2022-09-17T02:26:26;4.40;;;1.80;;
18286;SDS011;9269;50.838;12.094;2022-09-17T02:28:59;3.47;;;1.77;;
18286;SDS011;9269;50.838;12.094;2022-09-17T02:31:32;2.50;;;1.90;;
18286;SDS011;9269;50.838;12.094;2022-09-17T02:34:02;2.67;;;1.80;;
18286;SDS011;9269;50.838;12.094;2022-09-17T02:36:32;3.03;;;1.60;;
18286;SDS011;9269;50.838;12.094;2022-09-17T02:39:01;2.00;;;1.77;;
18286;SDS011;9269;50.838;12.094;2022-09-17T02:41:35;2.30;;;2.10;;
18286;SDS011;9269;50.838;12.094;2022-09-17T02:44:14;2.67;;;1.80;;
18286;SDS011;9269;50.838;12.094;2022-09-17T02:46:54;2.27;;;1.90;;
18286;SDS011;9269;50.838;12.094;2022-09-17T02:49:38;2.67;;;1.80;;
18286;SDS011;9269;50.838;12.094;2022-09-17T02:52:20;3.47;;;2.00;;
18286;SDS011;9269;50.838;12.094;2022-09-17T02:54:59;4.27;;;2.07;;
18286;SDS011;9269;50.838;12.094;2022-09-17T02:57:40;2.60;;;1.87;;
18286;SDS011;9269;50.838;12.094;2022-09-17T03:00:13;2.53;;;2.03;;
18286;SDS011;9269;50.838;12.094;2022-09-17T03:02:44;2.73;;;2.03;;
18286;SDS011;9269;50.838;12.094;2022-09-17T03:05:18;2.83;;;1.80;;
18286;SDS011;9269;50.838;12.094;2022-09-17T03:07:48;2.57;;;2.00;;
18286;SDS011;9269;50.838;12.094;2022-09-17T03:10:17;1.80;;;1.70;;
18286;SDS011;9269;50.838;12.094;2022-09-17T03:12:45;2.90;;;2.10;;
18286;SDS011;9269;50.838;12.094;2022-09-17T03:15:13;3.20;;;2.10;;
18286;SDS011;9269;50.838;12.094;2022-09-17T03:17:42;2.90;;;2.10;;
18286;SDS011;9269;50.838;12.094;2022-09-17T03:20:20;1.80;;;1.70;;
18286;SDS011;9269;50.838;12.094;2022-09-17T03:22:50;2.27;;;1.67;;
18286;SDS011;9269;50.838;12.094;2022-09-17T03:25:18;3.43;;;2.00;;
18286;SDS011;9269;50.838;12.094;2022-09-17T03:27:47;3.43;;;1.70;;
18286;SDS011;9269;50.838;12.094;2022-09-17T03:30:15;2.20;;;2.00;;
18286;SDS011;9269;50.838;12.094;2022-09-17T03:32:45;4.80;;;1.80;;
18286;SDS011;9269;50.838;12.094;2022-09-17T03:35:16;2.20;;;2.00;;
18286;SDS011;9269;50.838;12.094;2022-09-17T03:37:46;2.17;;;2.03;;
18286;SDS011;9269;50.838;12.094;2022-09-17T03:40:14;2.83;;;1.83;;
18286;SDS011;9269;50.838;12.094;2022-09-17T03:42:43;2.33;;;1.87;;
18286;SDS011;9269;50.838;12.094;2022-09-17T03:45:12;1.80;;;1.70;;
18286;SDS011;9269;50.838;12.094;2022-09-17T03:47:40;2.00;;;1.70;;
18286;SDS011;9269;50.838;12.094;2022-09-17T03:50:08;3.00;;;1.80;;
18286;SDS011;9269;50.838;12.094;2022-09-17T03:52:37;2.27;;;1.70;;
18286;SDS011;9269;50.838;12.094;2022-09-17T03:55:07;1.70;;;1.60;;
18286;SDS011;9269;50.838;12.094;2022-09-17T03:57:38;3.03;;;1.83;;
18286;SDS011;9269;50.838;12.094;2022-09-17T04:00:07;2.10;;;1.60;;
18286;SDS011;9269;50.838;12.094;2022-09-17T04:02:38;1.50;;;1.40;;
18286;SDS011;9269;50.838;12.094;2022-09-17T04:05:07;2.00;;;1.40;;
18286;SDS011;9269;50.838;12.094;2022-09-17T04:07:36;2.33;;;1.27;;
18286;SDS011;9269;50.838;12.094;2022-09-17T04:10:08;1.90;;;1.33;;
18286;SDS011;9269;50.838;12.094;2022-09-17T04:12:38;1.47;;;1.17;;
18286;SDS011;9269;50.838;12.094;2022-09-17T04:15:06;1.30;;;1.20;;
18286;SDS011;9269;50.838;12.094;2022-09-17T04:17:35;1.23;;;1.13;;
18286;SDS011;9269;50.838;12.094;2022-09-17T04:20:04;1.57;;;1.10;;
18286;SDS011;9269;50.838;12.094;2022-09-17T04:22:33;1.27;;;1.17;;
18286;SDS011;9269;50.838;12.094;2022-09-17T04:25:02;1.57;;;1.33;;
18286;SDS011;9269;50.838;12.094;2022-09-17T04:27:32;1.37;;;0.90;;
18286;SDS011;9269;50.838;12.094;2022-09-17T04:30:01;1.40;;;1.30;;
18286;SDS011;9269;50.838;12.094;2022-09-17T04:32:30;1.70;;;1.00;;
18286;SDS011;9269;50.838;12.094;2022-09-17T04:34:58;1.20;;;1.10;;
18286;SDS011;9269;50.838;12.094;2022-09-17T04:37:27;1.00;;;0.97;;
18286;SDS011;9269;50.838;12.094;2022-09-17T04:39:55;1.23;;;1.13;;
18286;SDS011;9269;50.838;12.094;2022-09-17T04:42:24;1.17;;;0.70;;
18286;SDS011;9269;50.838;12.094;2022-09-17T04:44:53;1.20;;;1.10;;
18286;SDS011;9269;50.838;12.094;2022-09-17T04:47:22;0.70;;;0.70;;
18286;SDS011;9269;50.838;12.094;2022-09-17T04:49:50;1.57;;;1.00;;
18286;SDS011;9269;50.838;12.094;2022-09-17T04:52:18;0.87;;;0.87;;
18286;SDS011;9269;50.838;12.094;2022-09-17T04:54:47;1.07;;;0.87;;
18286;SDS011;9269;50.838;12.094;2022-09-17T04:57:16;0.90;;;0.90;;
18286;SDS011;9269;50.838;12.094;2022-09-17T04:59:44;1.47;;;0.90;;
18286;SDS011;9269;50.838;12.094;2022-09-17T05:02:14;0.63;;;0.63;;
18286;SDS011;9269;50.838;12.094;2022-09-17T05:04:42;1.17;;;0.90;;
18286;SDS011;9269;50.838;12.094;2022-09-17T05:07:11;1.33;;;0.90;;
18286;SDS011;9269;50.838;12.094;2022-09-17T05:09:39;1.63;;;0.80;;
18286;SDS011;9269;50.838;12.094;2022-09-17T05:12:08;2.00;;;0.80;;
18286;SDS011;9269;50.838;12.094;2022-09-17T05:14:37;0.90;;;0.90;;
18286;SDS011;9269;50.838;12.094;2022-09-17T05:17:06;0.93;;;0.80;;
18286;SDS011;9269;50.838;12.094;2022-09-17T05:19:36;0.93;;;0.77;;
18286;SDS011;9269;50.838;12.094;2022-09-17T05:22:04;0.50;;;0.50;;
18286;SDS011;9269;50.838;12.094;2022-09-17T05:24:32;0.87;;;0.60;;
18286;SDS011;9269;50.838;12.094;2022-09-17T05:27:05;1.13;;;0.50;;
18286;SDS011;9269;50.838;12.094;2022-09-17T05:29:33;0.83;;;0.83;;
18286;SDS011;9269;50.838;12.094;2022-09-17T05:32:02;0.60;;;0.60;;
18286;SDS011;9269;50.838;12.094;2022-09-17T05:34:31;1.17;;;1.00;;
18286;SDS011;9269;50.838;12.094;2022-09-17T05:37:01;1.00;;;0.73;;
18286;SDS011;9269;50.838;12.094;2022-09-17T05:39:29;1.13;;;0.70;;
18286;SDS011;9269;50.838;12.094;2022-09-17T05:41:58;0.70;;;0.70;;
18286;SDS011;9269;50.838;12.094;2022-09-17T05:44:27;0.50;;;0.50;;
18286;SDS011;9269;50.838;12.094;2022-09-17T05:46:55;0.77;;;0.77;;
18286;SDS011;9269;50.838;12.094;2022-09-17T05:49:24;1.10;;;1.00;;
18286;SDS011;9269;50.838;12.094;2022-09-17T05:51:52;0.67;;;0.60;;
18286;SDS011;9269;50.838;12.094;2022-09-17T05:54:22;1.10;;;1.00;;
18286;SDS011;9269;50.838;12.094;2022-09-17T05:56:52;2.67;;;1.00;;
18286;SDS011;9269;50.838;12.094;2022-09-17T05:59:21;1.93;;;1.20;;
18286;SDS011;9269;50.838;12.094;2022-09-17T06:01:49;3.20;;;1.20;;
18286;SDS011;9269;50.838;12.094;2022-09-17T06:04:18;0.73;;;0.60;;
18286;SDS011;9269;50.838;12.094;2022-09-17T06:06:46;1.20;;;1.03;;
18286;SDS011;9269;50.838;12.094;2022-09-17T06:09:15;2.47;;;0.90;;
18286;SDS011;9269;50.838;12.094;2022-09-17T06:11:44;4.17;;;1.20;;
18286;SDS011;9269;50.838;12.094;2022-09-17T06:14:12;2.67;;;1.33;;
18286;SDS011;9269;50.838;12.094;2022-09-17T06:16:41;1.47;;;1.20;;
18286;SDS011;9269;50.838;12.094;2022-09-17T06:19:09;2.60;;;1.30;;
18286;SDS011;9269;50.838;12.094;2022-09-17T06:21:38;3.07;;;1.20;;
18286;SDS011;9269;50.838;12.094;2022-09-17T06:24:07;2.53;;;1.20;;
18286;SDS011;9269;50.838;12.094;2022-09-17T06:26:36;2.80;;;1.40;;
18286;SDS011;9269;50.838;12.094;2022-09-17T06:29:06;2.03;;;1.10;;
18286;SDS011;9269;50.838;12.094;2022-09-17T06:31:34;3.10;;;1.33;;
18286;SDS011;9269;50.838;12.094;2022-09-17T06:34:03;1.43;;;1.33;;
18286;SDS011;9269;50.838;12.094;2022-09-17T06:36:32;3.17;;;1.30;;
18286;SDS011;9269;50.838;12.094;2022-09-17T06:39:00;3.53;;;1.37;;
18286;SDS011;9269;50.838;12.094;2022-09-17T06:41:29;2.67;;;1.40;;
18286;SDS011;9269;50.838;12.094;2022-09-17T06:43:58;2.80;;;1.07;;
18286;SDS011;9269;50.838;12.094;2022-09-17T06:46:29;3.70;;;1.40;;
18286;SDS011;9269;50.838;12.094;2022-09-17T06:48:57;5.23;;;1.60;;
18286;SDS011;9269;50.838;12.094;2022-09-17T06:51:26;2.70;;;1.23;;
18286;SDS011;9269;50.838;12.094;2022-09-17T06:53:54;4.80;;;1.20;;
18286;SDS011;9269;50.838;12.094;2022-09-17T06:56:22;2.43;;;1.10;;
18286;SDS011;9269;50.838;12.094;2022-09-17T06:58:50;1.40;;;0.90;;
18286;SDS011;9269;50.838;12.094;2022-09-17T07:01:19;2.67;;;1.50;;
18286;SDS011;9269;50.838;12.094;2022-09-17T07:03:49;2.57;;;1.60;;
18286;SDS011;9269;50.838;12.094;2022-09-17T07:06:17;3.10;;;1.37;;
18286;SDS011;9269;50.838;12.094;2022-09-17T07:08:45;4.40;;;1.30;;
18286;SDS011;9269;50.838;12.094;2022-09-17T07:11:14;2.97;;;1.47;;
18286;SDS011;9269;50.838;12.094;2022-09-17T07:13:43;3.63;;;1.53;;
18286;SDS011;9269;50.838;12.094;2022-09-17T07:16:11;4.13;;;1.53;;
18286;SDS011;9269;50.838;12.094;2022-09-17T07:18:39;2.67;;;1.50;;
18286;SDS011;9269;50.838;12.094;2022-09-17T07:21:09;6.53;;;1.53;;
18286;SDS011;9269;50.838;12.094;2022-09-17T07:23:38;4.73;;;1.73;;
18286;SDS011;9269;50.838;12.094;2022-09-17T07:26:07;3.67;;;1.50;;
18286;SDS011;9269;50.838;12.094;2022-09-17T07:28:39;4.40;;;1.83;;
18286;SDS011;9269;50.838;12.094;2022-09-17T07:31:09;4.30;;;2.20;;
18286;SDS011;9269;50.838;12.094;2022-09-17T07:33:42;4.50;;;2.17;;
18286;SDS011;9269;50.838;12.094;2022-09-17T07:36:12;7.27;;;1.80;;
18286;SDS011;9269;50.838;12.094;2022-09-17T07:38:44;5.23;;;1.70;;
18286;SDS011;9269;50.838;12.094;2022-09-17T07:41:13;2.87;;;1.57;;
18286;SDS011;9269;50.838;12.094;2022-09-17T07:43:43;4.57;;;1.77;;
18286;SDS011;9269;50.838;12.094;2022-09-17T07:46:12;7.07;;;1.90;;
18286;SDS011;9269;50.838;12.094;2022-09-17T07:48:42;4.30;;;1.77;;
18286;SDS011;9269;50.838;12.094;2022-09-17T07:51:16;4.00;;;1.30;;
18286;SDS011;9269;50.838;12.094;2022-09-17T07:53:49;8.10;;;1.90;;
18286;SDS011;9269;50.838;12.094;2022-09-17T07:56:17;3.70;;;1.77;;
18286;SDS011;9269;50.838;12.094;2022-09-17T07:58:46;4.47;;;1.80;;
18286;SDS011;9269;50.838;12.094;2022-09-17T08:01:15;4.50;;;1.57;;
18286;SDS011;9269;50.838;12.094;2022-09-17T08:03:47;3.17;;;1.47;;
18286;SDS011;9269;50.838;12.094;2022-09-17T08:06:19;3.27;;;1.47;;
18286;SDS011;9269;50.838;12.094;2022-09-17T08:08:51;3.50;;;1.60;;
18286;SDS011;9269;50.838;12.094;2022-09-17T08:11:21;3.83;;;1.40;;
18286;SDS011;9269;50.838;12.094;2022-09-17T08:14:12;4.33;;;1.40;;
18286;SDS011;9269;50.838;12.094;2022-09-17T08:16:41;4.60;;;1.70;;
18286;SDS011;9269;50.838;12.094;2022-09-17T08:19:11;5.20;;;1.50;;
18286;SDS011;9269;50.838;12.094;2022-09-17T08:21:41;7.00;;;1.90;;
18286;SDS011;9269;50.838;12.094;2022-09-17T08:24:09;4.30;;;1.60;;
18286;SDS011;9269;50.838;12.094;2022-09-17T08:26:38;5.03;;;1.73;;
18286;SDS011;9269;50.838;12.094;2022-09-17T08:29:07;7.60;;;1.97;;
18286;SDS011;9269;50.838;12.094;2022-09-17T08:31:38;3.67;;;1.90;;
18286;SDS011;9269;50.838;12.094;2022-09-17T08:34:07;3.00;;;1.60;;
18286;SDS011;9269;50.838;12.094;2022-09-17T08:36:36;2.93;;;1.47;;
18286;SDS011;9269;50.838;12.094;2022-09-17T08:39:06;4.37;;;1.83;;
18286;SDS011;9269;50.838;12.094;2022-09-17T08:41:47;5.93;;;1.77;;
18286;SDS011;9269;50.838;12.094;2022-09-17T08:44:23;5.13;;;1.63;;
18286;SDS011;9269;50.838;12.094;2022-09-17T08:46:57;4.53;;;1.47;;
18286;SDS011;9269;50.838;12.094;2022-09-17T08:49:29;7.67;;;2.30;;
18286;SDS011;9269;50.838;12.094;2022-09-17T08:52:07;4.33;;;2.00;;
18286;SDS011;9269;50.838;12.094;2022-09-17T08:54:54;5.50;;;2.27;;
18286;SDS011;9269;50.838;12.094;2022-09-17T08:57:31;5.27;;;1.77;;
18286;SDS011;9269;50.838;12.094;2022-09-17T09:00:07;6.40;;;2.47;;
18286;SDS011;9269;50.838;12.094;2022-09-17T09:02:46;4.37;;;1.57;;
18286;SDS011;9269;50.838;12.094;2022-09-17T09:05:24;7.43;;;1.97;;
18286;SDS011;9269;50.838;12.094;2022-09-17T09:07:56;4.57;;;1.70;;
18286;SDS011;9269;50.838;12.094;2022-09-17T09:10:32;8.07;;;2.13;;
18286;SDS011;9269;50.838;12.094;2022-09-17T09:13:10;7.53;;;2.03;;
18286;SDS011;9269;50.838;12.094;2022-09-17T09:15:42;9.40;;;1.93;;
18286;SDS011;9269;50.838;12.094;2022-09-17T09:18:15;6.83;;;2.17;;
18286;SDS011;9269;50.838;12.094;2022-09-17T09:20:48;7.40;;;2.13;;
18286;SDS011;9269;50.838;12.094;2022-09-17T09:23:20;6.10;;;1.70;;
18286;SDS011;9269;50.838;12.094;2022-09-17T09:25:57;5.77;;;1.90;;
18286;SDS011;9269;50.838;12.094;2022-09-17T09:28:40;8.20;;;1.87;;
18286;SDS011;9269;50.838;12.094;2022-09-17T09:34:13;6.80;;;1.80;;
18286;SDS011;9269;50.838;12.094;2022-09-17T09:36:43;6.57;;;2.07;;
18286;SDS011;9269;50.838;12.094;2022-09-17T09:39:13;4.93;;;1.60;;
18286;SDS011;9269;50.838;12.094;2022-09-17T09:41:47;4.10;;;1.93;;
18286;SDS011;9269;50.838;12.094;2022-09-17T09:44:22;5.27;;;2.17;;
18286;SDS011;9269;50.838;12.094;2022-09-17T09:46:57;3.37;;;1.77;;
18286;SDS011;9269;50.838;12.094;2022-09-17T09:49:41;6.37;;;2.23;;
18286;SDS011;9269;50.838;12.094;2022-09-17T09:52:30;8.07;;;2.60;;
18286;SDS011;9269;50.838;12.094;2022-09-17T09:55:16;7.43;;;1.93;;
18286;SDS011;9269;50.838;12.094;2022-09-17T09:57:58;7.27;;;2.23;;
18286;SDS011;9269;50.838;12.094;2022-09-17T10:00:34;7.03;;;2.33;;
18286;SDS011;9269;50.838;12.094;2022-09-17T10:03:05;5.50;;;1.90;;
18286;SDS011;9269;50.838;12.094;2022-09-17T10:05:39;8.13;;;2.70;;
18286;SDS011;9269;50.838;12.094;2022-09-17T10:08:18;5.10;;;2.27;;
18286;SDS011;9269;50.838;12.094;2022-09-17T10:10:54;6.83;;;2.53;;
18286;SDS011;9269;50.838;12.094;2022-09-17T10:13:26;7.33;;;2.63;;
18286;SDS011;9269;50.838;12.094;2022-09-17T10:15:55;5.00;;;2.37;;
18286;SDS011;9269;50.838;12.094;2022-09-17T10:18:34;4.43;;;1.80;;
18286;SDS011;9269;50.838;12.094;2022-09-17T10:21:02;5.77;;;2.20;;
18286;SDS011;9269;50.838;12.094;2022-09-17T10:23:31;5.20;;;2.23;;
18286;SDS011;9269;50.838;12.094;2022-09-17T10:26:05;9.67;;;2.57;;
18286;SDS011;9269;50.838;12.094;2022-09-17T10:28:45;6.13;;;1.67;;
18286;SDS011;9269;50.838;12.094;2022-09-17T10:31:17;5.07;;;2.50;;
18286;SDS011;9269;50.838;12.094;2022-09-17T10:33:50;4.57;;;2.13;;
18286;SDS011;9269;50.838;12.094;2022-09-17T10:36:39;5.17;;;2.20;;
18286;SDS011;9269;50.838;12.094;2022-09-17T10:39:27;7.37;;;2.10;;
18286;SDS011;9269;50.838;12.094;2022-09-17T10:41:58;7.77;;;2.47;;
18286;SDS011;9269;50.838;12.094;2022-09-17T10:44:29;9.57;;;2.50;;
18286;SDS011;9269;50.838;12.094;2022-09-17T10:47:00;5.67;;;2.03;;
18286;SDS011;9269;50.838;12.094;2022-09-17T10:49:35;4.43;;;1.90;;
18286;SDS011;9269;50.838;12.094;2022-09-17T10:52:11;7.33;;;2.10;;
18286;SDS011;9269;50.838;12.094;2022-09-17T10:54:52;4.43;;;1.50;;
18286;SDS011;9269;50.838;12.094;2022-09-17T10:57:45;6.37;;;1.80;;
18286;SDS011;9269;50.838;12.094;2022-09-17T11:00:23;7.37;;;2.10;;
18286;SDS011;9269;50.838;12.094;2022-09-17T11:03:02;3.87;;;1.87;;
18286;SDS011;9269;50.838;12.094;2022-09-17T11:05:51;4.63;;;2.30;;
18286;SDS011;9269;50.838;12.094;2022-09-17T11:08:41;5.97;;;2.50;;
18286;SDS011;9269;50.838;12.094;2022-09-17T11:11:22;5.47;;;2.03;;
18286;SDS011;9269;50.838;12.094;2022-09-17T11:14:04;5.87;;;2.20;;
18286;SDS011;9269;50.838;12.094;2022-09-17T11:16:46;4.77;;;2.30;;
18286;SDS011;9269;50.838;12.094;2022-09-17T11:19:26;7.07;;;2.20;;
18286;SDS011;9269;50.838;12.094;2022-09-17T11:22:04;5.80;;;1.90;;
18286;SDS011;9269;50.838;12.094;2022-09-17T11:24:53;7.20;;;1.97;;
18286;SDS011;9269;50.838;12.094;2022-09-17T11:27:43;6.37;;;2.30;;
18286;SDS011;9269;50.838;12.094;2022-09-17T11:30:22;6.77;;;2.30;;
18286;SDS011;9269;50.838;12.094;2022-09-17T11:33:07;5.77;;;2.37;;
18286;SDS011;9269;50.838;12.094;2022-09-17T11:35:47;7.30;;;2.30;;
18286;SDS011;9269;50.838;12.094;2022-09-17T11:38:19;4.90;;;1.93;;
18286;SDS011;9269;50.838;12.094;2022-09-17T11:40:55;8.03;;;2.33;;
18286;SDS011;9269;50.838;12.094;2022-09-17T11:43:27;7.40;;;2.07;;
18286;SDS011;9269;50.838;12.094;2022-09-17T11:45:59;7.20;;;2.43;;
18286;SDS011;9269;50.838;12.094;2022-09-17T11:48:38;4.67;;;1.87;;
18286;SDS011;9269;50.838;12.094;2022-09-17T11:51:21;5.97;;;1.70;;
18286;SDS011;9269;50.838;12.094;2022-09-17T11:53:56;3.40;;;1.60;;
18286;SDS011;9269;50.838;12.094;2022-09-17T11:56:33;4.37;;;1.67;;
18286;SDS011;9269;50.838;12.094;2022-09-17T11:59:10;3.87;;;1.70;;
18286;SDS011;9269;50.838;12.094;2022-09-17T12:01:44;4.00;;;1.67;;
18286;SDS011;9269;50.838;12.094;2022-09-17T12:04:26;2.40;;;1.30;;
18286;SDS011;9269;50.838;12.094;2022-09-17T12:07:01;5.83;;;1.53;;
18286;SDS011;9269;50.838;12.094;2022-09-17T12:09:37;4.70;;;1.83;;
18286;SDS011;9269;50.838;12.094;2022-09-17T12:12:11;6.67;;;1.87;;
18286;SDS011;9269;50.838;12.094;2022-09-17T12:15:05;5.27;;;1.80;;
18286;SDS011;9269;50.838;12.094;2022-09-17T12:17:42;4.60;;;1.73;;
18286;SDS011;9269;50.838;12.094;2022-09-17T12:20:18;5.90;;;1.70;;
18286;SDS011;9269;50.838;12.094;2022-09-17T12:22:54;4.70;;;1.70;;
18286;SDS011;9269;50.838;12.094;2022-09-17T12:25:26;6.20;;;2.03;;
18286;SDS011;9269;50.838;12.094;2022-09-17T12:28:00;5.67;;;1.73;;
18286;SDS011;9269;50.838;12.094;2022-09-17T12:30:37;4.37;;;1.50;;
18286;SDS011;9269;50.838;12.094;2022-09-17T12:33:15;5.27;;;1.63;;
18286;SDS011;9269;50.838;12.094;2022-09-17T12:36:14;5.20;;;1.70;;
18286;SDS011;9269;50.838;12.094;2022-09-17T12:39:05;5.90;;;2.53;;
18286;SDS011;9269;50.838;12.094;2022-09-17T12:41:59;5.57;;;2.40;;
18286;SDS011;9269;50.838;12.094;2022-09-17T12:44:45;5.10;;;1.87;;
18286;SDS011;9269;50.838;12.094;2022-09-17T12:47:40;5.67;;;1.90;;
18286;SDS011;9269;50.838;12.094;2022-09-17T12:50:26;3.80;;;1.30;;
18286;SDS011;9269;50.838;12.094;2022-09-17T12:53:14;3.47;;;1.43;;
18286;SDS011;9269;50.838;12.094;2022-09-17T12:55:54;3.83;;;1.77;;
18286;SDS011;9269;50.838;12.094;2022-09-17T12:58:47;2.97;;;1.60;;
18286;SDS011;9269;50.838;12.094;2022-09-17T13:01:32;3.57;;;1.40;;
18286;SDS011;9269;50.838;12.094;2022-09-17T13:04:10;5.47;;;1.60;;
18286;SDS011;9269;50.838;12.094;2022-09-17T13:07:13;4.40;;;1.40;;
18286;SDS011;9269;50.838;12.094;2022-09-17T13:10:09;4.90;;;1.40;;
18286;SDS011;9269;50.838;12.094;2022-09-17T13:12:54;2.23;;;1.10;;
18286;SDS011;9269;50.838;12.094;2022-09-17T13:15:41;2.93;;;1.50;;
18286;SDS011;9269;50.838;12.094;2022-09-17T13:18:19;4.23;;;1.40;;
18286;SDS011;9269;50.838;12.094;2022-09-17T13:20:57;6.67;;;1.73;;
18286;SDS011;9269;50.838;12.094;2022-09-17T13:23:32;5.53;;;1.87;;
18286;SDS011;9269;50.838;12.094;2022-09-17T13:26:05;4.17;;;1.50;;
18286;SDS011;9269;50.838;12.094;2022-09-17T13:28:35;3.30;;;1.77;;
18286;SDS011;9269;50.838;12.094;2022-09-17T13:31:12;2.97;;;1.60;;
18286;SDS011;9269;50.838;12.094;2022-09-17T13:33:53;4.97;;;1.50;;
18286;SDS011;9269;50.838;12.094;2022-09-17T13:42:13;3.60;;;1.53;;
18286;SDS011;9269;50.838;12.094;2022-09-17T13:44:49;3.87;;;1.30;;
18286;SDS011;9269;50.838;12.094;2022-09-17T13:47:22;4.23;;;1.57;;
18286;SDS011;9269;50.838;12.094;2022-09-17T13:49:54;3.97;;;2.33;;
18286;SDS011;9269;50.838;12.094;2022-09-17T13:52:33;3.83;;;1.43;;
18286;SDS011;9269;50.838;12.094;2022-09-17T13:55:05;4.90;;;1.63;;
18286;SDS011;9269;50.838;12.094;2022-09-17T13:57:45;2.97;;;1.43;;
18286;SDS011;9269;50.838;12.094;2022-09-17T14:15:30;5.07;;;1.80;;
18286;SDS011;9269;50.838;12.094;2022-09-17T14:18:33;5.43;;;1.97;;
18286;SDS011;9269;50.838;12.094;2022-09-17T14:21:08;6.27;;;1.70;;
18286;SDS011;9269;50.838;12.094;2022-09-17T14:23:43;4.83;;;1.30;;
18286;SDS011;9269;50.838;12.094;2022-09-17T14:26:16;4.03;;;1.40;;
18286;SDS011;9269;50.838;12.094;2022-09-17T14:28:54;3.93;;;1.47;;
18286;SDS011;9269;50.838;12.094;2022-09-17T14:31:30;3.80;;;1.00;;
18286;SDS011;9269;50.838;12.094;2022-09-17T14:34:02;3.57;;;1.30;;
18286;SDS011;9269;50.838;12.094;2022-09-17T14:36:33;3.30;;;1.10;;
18286;SDS011;9269;50.838;12.094;2022-09-17T14:39:04;3.20;;;1.50;;
18286;SDS011;9269;50.838;12.094;2022-09-17T14:41:43;1.97;;;1.07;;
18286;SDS011;9269;50.838;12.094;2022-09-17T14:44:14;1.83;;;0.80;;
18286;SDS011;9269;50.838;12.094;2022-09-17T14:46:48;2.63;;;1.20;;
18286;SDS011;9269;50.838;12.094;2022-09-17T14:49:23;3.73;;;1.27;;
18286;SDS011;9269;50.838;12.094;2022-09-17T14:51:53;2.80;;;1.07;;
18286;SDS011;9269;50.838;12.094;2022-09-17T14:54:23;2.00;;;0.90;;
18286;SDS011;9269;50.838;12.094;2022-09-17T14:56:56;1.80;;;0.73;;
18286;SDS011;9269;50.838;12.094;2022-09-17T14:59:34;1.80;;;0.80;;
18286;SDS011;9269;50.838;12.094;2022-09-17T15:02:20;2.13;;;1.07;;
18286;SDS011;9269;50.838;12.094;2022-09-17T15:04:56;2.43;;;1.20;;
18286;SDS011;9269;50.838;12.094;2022-09-17T15:07:26;2.47;;;0.90;;
18286;SDS011;9269;50.838;12.094;2022-09-17T15:10:04;2.87;;;0.93;;
18286;SDS011;9269;50.838;12.094;2022-09-17T15:12:36;2.77;;;0.80;;
18286;SDS011;9269;50.838;12.094;2022-09-17T15:15:10;1.50;;;0.60;;
18286;SDS011;9269;50.838;12.094;2022-09-17T15:17:44;2.33;;;0.80;;
18286;SDS011;9269;50.838;12.094;2022-09-17T15:20:16;1.33;;;0.83;;
18286;SDS011;9269;50.838;12.094;2022-09-17T15:22:48;2.63;;;1.20;;
18286;SDS011;9269;50.838;12.094;2022-09-17T15:25:23;1.43;;;0.87;;
18286;SDS011;9269;50.838;12.094;2022-09-17T15:27:57;3.03;;;1.30;;
18286;SDS011;9269;50.838;12.094;2022-09-17T15:30:33;2.13;;;1.10;;
18286;SDS011;9269;50.838;12.094;2022-09-17T15:33:02;3.00;;;0.97;;
18286;SDS011;9269;50.838;12.094;2022-09-17T15:35:31;2.13;;;0.77;;
18286;SDS011;9269;50.838;12.094;2022-09-17T15:38:00;1.53;;;1.00;;
18286;SDS011;9269;50.838;12.094;2022-09-17T15:40:49;1.53;;;0.80;;
18286;SDS011;9269;50.838;12.094;2022-09-17T15:43:20;3.47;;;1.17;;
18286;SDS011;9269;50.838;12.094;2022-09-17T15:45:55;4.00;;;1.43;;
18286;SDS011;9269;50.838;12.094;2022-09-17T15:48:35;2.50;;;1.10;;
18286;SDS011;9269;50.838;12.094;2022-09-17T15:51:13;1.70;;;1.30;;
18286;SDS011;9269;50.838;12.094;2022-09-17T15:53:51;2.10;;;1.00;;
18286;SDS011;9269;50.838;12.094;2022-09-17T15:56:22;2.37;;;0.93;;
18286;SDS011;9269;50.838;12.094;2022-09-17T15:58:56;2.07;;;1.00;;